メインページ
METAR-TAF:

METAR-TAF

空港 :

シカゴ・ミッドウェー国際空港

シカゴ, イリノイ州, アメリカ合衆国

緯度: 41-47-03N, 経度: 087-45-19W, 海抜: 188m

現時点の気象観測

当レポートは12分前の00:53(UTC)に作成
の風 11kt
気温 22°C
湿度 53%
気圧 1022 hPa
視程: 16.1km
高度25000ftの雲は散在している

METAR: KMDW 250053Z 08011KT 10SM SCT250 22/12 A3019 RMK AO2 SLP216 T02170122

時間: 20:05 (01:05 UTC)

予報

当レポートは1時間44分前の23:21(UTC)に作成
予報は25日の 00時(UTC)から 26日の 06時(UTC)まで有効
の風 10kt
視程: 10km
高度5000ftの雲はほとんどない
高度30000ftの雲は散在している
25日の 0400時(UTC)から
東/南東の風 6kt
視程: 10km
高度4000ftの雲はほとんどない
高度30000ftの雲は散在している
25日の 1800時(UTC)から
の風 12kt
視程: 10km
高度5000ftの雲はほとんどない
高度25000ftの千切れ雲あり

TAF: KMDW 242321Z 2500/2606 09010KT P6SM FEW050 SCT300 FM250400 12006KT P6SM FEW040 SCT300 FM251800 09012KT P6SM FEW050 BKN250

4,000以上の空港の気象観測と天気予報(METAR報とTAF報)

利用可能な観測所は地図上に黄色い丸と赤い丸で示す。

丸の上にカーソルを重ねると観測所名を参照できる。

次にクリックすると気象観測と天気予報を参照できる。

マップの切り替え:黒色「×」印の緑ボタンをクリックして拡大、「-」印の緑ボタンをクリックして縮小、緑色の三角印をクリックして隣りの地図に切り替え


METAR-TAF: